createdAt,value
2022-11-01T00:00:00.723Z,10.20
2022-11-01T00:00:23.488Z,10.30
2022-11-01T00:00:46.192Z,10.30
2022-11-01T00:01:09.050Z,10.20
2022-11-01T00:01:32.016Z,10.20
2022-11-01T00:01:54.810Z,10.20
2022-11-01T00:02:17.836Z,10.20
2022-11-01T00:02:41.982Z,10.20
2022-11-01T00:03:05.084Z,10.20
2022-11-01T00:03:27.836Z,10.10
2022-11-01T00:03:50.563Z,10.10
2022-11-01T00:04:13.279Z,10.10
2022-11-01T00:04:36.000Z,10.10
2022-11-01T00:04:58.776Z,10.10
2022-11-01T00:05:21.479Z,10.10
2022-11-01T00:05:45.914Z,10.10
2022-11-01T00:06:08.652Z,10.10
2022-11-01T00:06:31.355Z,10.10
2022-11-01T00:06:55.126Z,10.20
2022-11-01T00:07:17.843Z,10.20
2022-11-01T00:07:40.576Z,10.20
2022-11-01T00:08:03.691Z,10.20
2022-11-01T00:08:26.753Z,10.10
2022-11-01T00:08:49.463Z,10.20
2022-11-01T00:09:12.197Z,10.20
2022-11-01T00:09:35.108Z,10.10
2022-11-01T00:09:57.892Z,10.10
2022-11-01T00:10:20.603Z,10.10
2022-11-01T00:10:43.317Z,10.10
2022-11-01T00:11:15.932Z,10.10
2022-11-01T00:11:38.904Z,10.20
2022-11-01T00:12:01.607Z,10.20
2022-11-01T00:12:24.390Z,10.20
2022-11-01T00:12:47.210Z,10.20
2022-11-01T00:13:09.924Z,10.10
2022-11-01T00:13:32.629Z,10.20
2022-11-01T00:13:56.354Z,10.10
2022-11-01T00:14:19.904Z,10.10
2022-11-01T00:14:42.706Z,10.10
2022-11-01T00:15:06.634Z,10.10
2022-11-01T00:15:29.410Z,10.10
2022-11-01T00:15:52.154Z,10.10
2022-11-01T00:16:15.093Z,10.10
2022-11-01T00:16:37.992Z,10.10
2022-11-01T00:17:00.695Z,10.10
2022-11-01T00:17:23.435Z,10.10
2022-11-01T00:17:47.646Z,10.10
2022-11-01T00:18:10.378Z,10.10
2022-11-01T00:18:33.164Z,10.10
2022-11-01T00:18:55.831Z,10.20
2022-11-01T00:19:19.291Z,10.10
2022-11-01T00:19:42.004Z,10.10
2022-11-01T00:20:05.433Z,10.10
2022-11-01T00:20:30.877Z,10.10
2022-11-01T00:20:53.621Z,10.10
2022-11-01T00:21:16.704Z,10.00
2022-11-01T00:21:39.693Z,10.00
2022-11-01T00:22:02.755Z,10.00
2022-11-01T00:22:26.725Z,10.00
2022-11-01T00:22:49.769Z,10.00
2022-11-01T00:23:13.668Z,9.90
2022-11-01T00:23:37.416Z,10.00
2022-11-01T00:24:00.162Z,9.90
2022-11-01T00:24:22.840Z,9.90
2022-11-01T00:24:45.547Z,9.90
2022-11-01T00:25:09.800Z,9.90
2022-11-01T00:25:32.573Z,10.00
2022-11-01T00:25:55.352Z,10.00
2022-11-01T00:26:19.587Z,10.00
2022-11-01T00:26:42.487Z,10.00
2022-11-01T00:27:05.506Z,10.00
2022-11-01T00:27:28.278Z,10.00
2022-11-01T00:27:51.000Z,10.10
2022-11-01T00:28:13.753Z,10.10
2022-11-01T00:28:37.678Z,10.00
2022-11-01T00:29:00.318Z,10.10
2022-11-01T00:29:23.043Z,10.10
2022-11-01T00:29:45.785Z,10.10
2022-11-01T00:30:09.088Z,10.10
2022-11-01T00:30:31.857Z,10.10
2022-11-01T00:30:54.568Z,10.10
2022-11-01T00:31:18.494Z,10.10
2022-11-01T00:31:41.470Z,10.10
2022-11-01T00:32:04.597Z,10.20
2022-11-01T00:32:28.325Z,10.10
2022-11-01T00:32:52.394Z,10.10
2022-11-01T00:33:15.284Z,10.10
2022-11-01T00:33:39.381Z,10.10
2022-11-01T00:34:05.654Z,10.10
2022-11-01T00:34:28.320Z,10.10
2022-11-01T00:34:51.114Z,10.10
2022-11-01T00:35:13.902Z,10.20
2022-11-01T00:35:39.024Z,10.20
2022-11-01T00:36:01.856Z,10.20
2022-11-01T00:36:24.737Z,10.20
2022-11-01T00:36:47.532Z,10.10
2022-11-01T00:37:10.461Z,10.10
2022-11-01T00:37:33.280Z,10.10
2022-11-01T00:37:56.001Z,10.10
2022-11-01T00:38:18.880Z,10.10
2022-11-01T00:38:41.653Z,10.10
2022-11-01T00:39:04.575Z,10.10
2022-11-01T00:39:30.610Z,10.10
2022-11-01T00:39:54.264Z,10.10
2022-11-01T00:40:17.190Z,10.00
2022-11-01T00:40:39.879Z,10.00
2022-11-01T00:41:04.188Z,10.10
2022-11-01T00:41:26.939Z,10.10
2022-11-01T00:41:49.616Z,10.10
2022-11-01T00:42:12.564Z,10.10
2022-11-01T00:42:35.380Z,10.20
2022-11-01T00:42:58.083Z,10.20
2022-11-01T00:43:20.815Z,10.20
2022-11-01T00:43:43.524Z,10.30
2022-11-01T00:44:06.280Z,10.30
2022-11-01T00:44:28.943Z,10.20
2022-11-01T00:44:51.683Z,10.30
2022-11-01T00:45:14.474Z,10.30
2022-11-01T00:45:38.357Z,10.20
2022-11-01T00:46:01.178Z,10.30
2022-11-01T00:46:23.903Z,10.20
2022-11-01T00:46:46.632Z,10.20
2022-11-01T00:47:10.586Z,10.20
2022-11-01T00:47:33.296Z,10.20
2022-11-01T00:47:57.536Z,10.20
2022-11-01T00:48:20.320Z,10.20
2022-11-01T00:48:43.000Z,10.20
2022-11-01T00:49:05.789Z,10.20
2022-11-01T00:49:28.522Z,10.20
2022-11-01T00:49:51.237Z,10.20
2022-11-01T00:50:14.046Z,10.20
2022-11-01T00:50:37.764Z,10.10
2022-11-01T00:51:00.414Z,10.10
2022-11-01T00:51:23.092Z,10.20
2022-11-01T00:51:45.784Z,10.20
2022-11-01T00:52:08.675Z,10.20
2022-11-01T00:52:31.342Z,10.20
2022-11-01T00:52:54.104Z,10.10
2022-11-01T00:53:18.247Z,10.10
2022-11-01T00:53:42.210Z,10.10
2022-11-01T00:54:05.130Z,10.10
2022-11-01T00:54:27.850Z,10.10
2022-11-01T00:54:50.655Z,10.10
2022-11-01T00:55:13.369Z,10.10
2022-11-01T00:55:36.159Z,10.10
2022-11-01T00:56:01.138Z,10.10
2022-11-01T00:56:23.836Z,10.10
2022-11-01T00:56:46.574Z,10.10
2022-11-01T00:57:09.393Z,10.10
2022-11-01T00:57:32.076Z,10.10
2022-11-01T00:57:54.958Z,10.10
2022-11-01T00:58:17.845Z,10.10
2022-11-01T00:58:40.821Z,10.10
2022-11-01T00:59:03.565Z,10.10
2022-11-01T00:59:26.280Z,10.10
2022-11-01T00:59:49.004Z,10.10
2022-11-01T01:00:13.454Z,10.10
2022-11-01T01:00:36.350Z,10.10
2022-11-01T01:00:59.491Z,10.10
2022-11-01T01:01:22.687Z,10.10
2022-11-01T01:01:45.585Z,10.10
2022-11-01T01:02:08.834Z,10.10
2022-11-01T01:02:31.966Z,10.10
2022-11-01T01:02:56.248Z,10.10
2022-11-01T01:03:18.878Z,10.00
2022-11-01T01:03:41.771Z,10.00
2022-11-01T01:04:04.770Z,10.00
2022-11-01T01:04:27.645Z,10.00
2022-11-01T01:04:50.658Z,10.00
2022-11-01T01:05:13.394Z,10.00
2022-11-01T01:05:36.150Z,10.00
2022-11-01T01:05:58.927Z,10.00
2022-11-01T01:06:21.653Z,10.00
2022-11-01T01:06:44.319Z,10.00
2022-11-01T01:07:06.990Z,10.00
2022-11-01T01:07:29.734Z,10.00
2022-11-01T01:07:52.434Z,9.90
2022-11-01T01:08:15.521Z,9.90
2022-11-01T01:08:38.290Z,9.90
2022-11-01T01:09:01.050Z,9.90
2022-11-01T01:09:23.955Z,9.90
2022-11-01T01:09:46.665Z,9.90
2022-11-01T01:10:09.649Z,9.90
2022-11-01T01:10:32.444Z,9.90
2022-11-01T01:10:55.255Z,10.00
2022-11-01T01:11:17.994Z,10.00
2022-11-01T01:11:40.697Z,9.90
2022-11-01T01:12:03.478Z,9.90
2022-11-01T01:12:26.151Z,9.90
2022-11-01T01:12:50.026Z,9.90
2022-11-01T01:13:12.736Z,9.90
2022-11-01T01:13:35.534Z,9.90
2022-11-01T01:13:58.275Z,9.90
2022-11-01T01:14:20.989Z,9.90
2022-11-01T01:14:44.726Z,10.00
2022-11-01T01:15:09.280Z,10.00
2022-11-01T01:15:31.994Z,10.00
2022-11-01T01:15:54.728Z,10.00
2022-11-01T01:16:17.504Z,10.00
2022-11-01T01:17:08.130Z,10.00
2022-11-01T01:17:33.720Z,10.00
2022-11-01T01:17:58.221Z,10.00
2022-11-01T01:18:20.904Z,9.90
2022-11-01T01:18:43.635Z,9.90
2022-11-01T01:19:06.355Z,9.90
2022-11-01T01:19:29.841Z,9.90
2022-11-01T01:19:52.490Z,10.00
2022-11-01T01:20:15.435Z,10.00
2022-11-01T01:20:38.197Z,10.00
2022-11-01T01:21:01.776Z,10.00
2022-11-01T01:21:24.497Z,10.00
2022-11-01T01:21:47.316Z,10.00
2022-11-01T01:22:10.082Z,10.00
2022-11-01T01:22:32.696Z,10.00
2022-11-01T01:22:55.889Z,10.00
2022-11-01T01:23:18.630Z,10.00
2022-11-01T01:23:41.290Z,10.00
2022-11-01T01:24:04.069Z,10.00
2022-11-01T01:24:26.815Z,10.00
2022-11-01T01:24:49.992Z,10.10
2022-11-01T01:25:12.650Z,10.10
2022-11-01T01:25:35.375Z,10.10
2022-11-01T01:25:58.191Z,10.10
2022-11-01T01:26:20.915Z,10.10
2022-11-01T01:26:43.720Z,10.10
2022-11-01T01:27:06.469Z,10.10
2022-11-01T01:27:29.129Z,10.10
2022-11-01T01:27:51.813Z,10.10
2022-11-01T01:28:14.595Z,10.10
2022-11-01T01:28:41.789Z,10.10
2022-11-01T01:29:07.357Z,10.10
2022-11-01T01:29:30.275Z,10.10
2022-11-01T01:29:52.954Z,10.10
2022-11-01T01:30:15.657Z,10.10
2022-11-01T01:30:41.481Z,10.10
2022-11-01T01:31:07.432Z,10.20
2022-11-01T01:31:30.134Z,10.20
2022-11-01T01:31:52.858Z,10.10
2022-11-01T01:32:16.728Z,10.10
2022-11-01T01:32:39.459Z,10.20
2022-11-01T01:33:03.780Z,10.20
2022-11-01T01:33:26.904Z,10.10
2022-11-01T01:33:49.602Z,10.10
2022-11-01T01:34:12.322Z,10.10
2022-11-01T01:34:35.074Z,10.10
2022-11-01T01:34:58.099Z,10.10
2022-11-01T01:35:20.800Z,10.10
2022-11-01T01:35:43.501Z,10.10
2022-11-01T01:36:07.147Z,10.10
2022-11-01T01:36:29.863Z,10.10
2022-11-01T01:36:52.519Z,10.10
2022-11-01T01:37:15.610Z,10.10
2022-11-01T01:37:39.400Z,10.10
2022-11-01T01:38:02.264Z,10.10
2022-11-01T01:38:25.333Z,10.10
2022-11-01T01:38:48.018Z,10.10
2022-11-01T01:39:10.862Z,10.10
2022-11-01T01:39:33.626Z,10.00
2022-11-01T01:39:56.504Z,10.00
2022-11-01T01:40:19.352Z,10.00
2022-11-01T01:40:42.252Z,10.00
2022-11-01T01:41:23.936Z,10.00
2022-11-01T01:41:58.914Z,10.00
2022-11-01T01:42:29.128Z,10.00
2022-11-01T01:42:51.839Z,10.00
2022-11-01T01:43:14.740Z,10.00
2022-11-01T01:43:41.316Z,10.10
2022-11-01T01:44:57.250Z,10.00
2022-11-01T01:45:31.310Z,10.10
2022-11-01T01:45:54.020Z,10.10
2022-11-01T01:46:16.855Z,10.10
2022-11-01T01:46:39.584Z,10.10
2022-11-01T01:47:02.424Z,10.10
2022-11-01T01:47:27.375Z,10.10
2022-11-01T01:47:52.169Z,10.10
2022-11-01T01:48:22.039Z,10.10
2022-11-01T01:48:47.055Z,10.00
2022-11-01T01:49:09.934Z,10.00
2022-11-01T01:49:32.666Z,10.00
2022-11-01T01:49:57.509Z,10.00
2022-11-01T01:50:25.934Z,9.90
2022-11-01T01:50:51.302Z,9.90
2022-11-01T01:51:16.469Z,9.90
2022-11-01T01:51:39.520Z,9.90
2022-11-01T01:52:02.199Z,9.90
2022-11-01T01:52:24.834Z,9.90
2022-11-01T01:52:51.846Z,9.90
2022-11-01T01:53:17.485Z,9.90
2022-11-01T01:53:42.142Z,9.90
2022-11-01T01:54:04.952Z,9.90
2022-11-01T01:54:27.597Z,9.90
2022-11-01T01:54:51.135Z,10.00
2022-11-01T01:55:15.813Z,10.00
2022-11-01T01:55:43.239Z,10.00
2022-11-01T01:56:07.651Z,10.00
2022-11-01T01:56:32.117Z,10.00
2022-11-01T01:56:54.902Z,10.10
2022-11-01T01:57:17.749Z,10.00
2022-11-01T01:57:40.474Z,10.00
2022-11-01T01:58:03.317Z,10.00
2022-11-01T01:58:28.474Z,10.00
2022-11-01T01:58:52.517Z,10.00
2022-11-01T01:59:15.228Z,10.00
2022-11-01T01:59:37.893Z,9.90
2022-11-01T02:00:00.577Z,9.90
2022-11-01T02:00:23.232Z,10.00
2022-11-01T02:00:46.201Z,10.00
2022-11-01T02:01:09.058Z,10.00
2022-11-01T02:01:32.486Z,10.00
2022-11-01T02:01:55.549Z,10.00
2022-11-01T02:02:18.494Z,10.00
2022-11-01T02:02:41.607Z,10.00
2022-11-01T02:03:05.089Z,10.00
2022-11-01T02:03:31.517Z,10.00
2022-11-01T02:03:54.300Z,10.00
2022-11-01T02:04:20.131Z,10.00
2022-11-01T02:04:45.146Z,10.00
2022-11-01T02:05:11.061Z,10.00
2022-11-01T02:05:39.834Z,10.00
2022-11-01T02:06:07.152Z,10.00
2022-11-01T02:06:30.019Z,10.00
2022-11-01T02:06:52.800Z,10.00
2022-11-01T02:07:15.593Z,9.90
2022-11-01T02:07:38.322Z,9.90
2022-11-01T02:08:02.113Z,9.90
2022-11-01T02:08:28.152Z,9.90
2022-11-01T02:08:52.801Z,9.90
2022-11-01T02:09:15.482Z,9.90
2022-11-01T02:09:40.750Z,10.00
2022-11-01T02:10:05.086Z,10.00
2022-11-01T02:10:28.811Z,10.00
2022-11-01T02:10:51.506Z,10.00
2022-11-01T02:11:14.551Z,10.00
2022-11-01T02:11:37.416Z,10.00
2022-11-01T02:12:00.153Z,10.00
2022-11-01T02:12:22.968Z,10.00
2022-11-01T02:12:47.997Z,10.00
2022-11-01T02:13:14.211Z,10.00
2022-11-01T02:13:36.916Z,10.00
2022-11-01T02:13:59.686Z,10.00
2022-11-01T02:14:22.372Z,10.00
2022-11-01T02:14:45.087Z,10.00
2022-11-01T02:15:13.676Z,9.90
2022-11-01T02:15:39.827Z,9.90
2022-11-01T02:16:31.231Z,9.90
2022-11-01T02:16:57.052Z,9.90
2022-11-01T02:17:22.682Z,9.90
2022-11-01T02:18:01.265Z,9.90
2022-11-01T02:18:28.304Z,9.90
2022-11-01T02:18:57.592Z,9.90
2022-11-01T02:19:46.892Z,9.90
2022-11-01T02:20:38.092Z,9.90
2022-11-01T02:21:23.192Z,10.00
2022-11-01T02:21:50.776Z,9.90
2022-11-01T02:22:15.101Z,9.90
2022-11-01T02:23:15.611Z,10.00
2022-11-01T02:23:57.465Z,10.00
2022-11-01T02:24:46.233Z,10.00
2022-11-01T02:25:35.052Z,10.00
2022-11-01T02:26:03.831Z,10.00
2022-11-01T02:27:06.544Z,10.00
2022-11-01T02:27:31.257Z,10.00
2022-11-01T02:28:08.353Z,9.90
2022-11-01T02:28:41.686Z,9.90
2022-11-01T02:29:12.076Z,9.90
2022-11-01T02:30:04.210Z,9.90
2022-11-01T02:30:27.030Z,9.90
2022-11-01T02:30:55.994Z,9.90
2022-11-01T02:31:31.678Z,9.90
2022-11-01T02:32:01.524Z,9.90
2022-11-01T02:32:26.253Z,9.90
2022-11-01T02:32:55.212Z,9.90
2022-11-01T02:33:22.181Z,9.90
2022-11-01T02:33:45.711Z,9.90
2022-11-01T02:34:10.835Z,9.90
2022-11-01T02:34:35.367Z,9.90
2022-11-01T02:34:59.043Z,9.90
2022-11-01T02:35:24.867Z,9.90
2022-11-01T02:35:56.022Z,9.90
2022-11-01T02:36:21.571Z,9.90
2022-11-01T02:36:46.091Z,9.90
2022-11-01T02:37:11.669Z,9.90
2022-11-01T02:37:37.596Z,9.90
2022-11-01T02:38:01.578Z,10.00
2022-11-01T02:38:27.081Z,10.00
2022-11-01T02:38:51.517Z,10.00
2022-11-01T02:39:17.609Z,10.00
2022-11-01T02:39:41.433Z,10.00
2022-11-01T02:40:07.668Z,10.10
2022-11-01T02:40:35.616Z,10.10
2022-11-01T02:41:04.007Z,10.10
2022-11-01T02:41:29.432Z,10.10
2022-11-01T02:41:54.969Z,10.10
2022-11-01T02:42:19.847Z,10.10
2022-11-01T02:42:43.601Z,10.10
2022-11-01T02:43:09.192Z,10.10
2022-11-01T02:43:34.572Z,10.10
2022-11-01T02:43:59.738Z,10.10
2022-11-01T02:44:23.884Z,10.10
2022-11-01T02:44:50.335Z,10.10
2022-11-01T02:45:27.756Z,10.10
2022-11-01T02:45:51.514Z,10.20
2022-11-01T02:46:32.710Z,10.10
2022-11-01T02:47:01.860Z,10.20
2022-11-01T02:47:26.147Z,10.10
2022-11-01T02:47:48.964Z,10.10
2022-11-01T02:48:13.394Z,10.10
2022-11-01T02:48:36.160Z,10.10
2022-11-01T02:48:59.335Z,10.00
2022-11-01T02:49:22.129Z,10.00
2022-11-01T02:49:45.610Z,10.00
2022-11-01T02:50:09.747Z,10.00
2022-11-01T02:50:33.999Z,10.00
2022-11-01T02:50:57.283Z,10.00
2022-11-01T02:51:21.966Z,10.00
2022-11-01T02:51:44.659Z,10.00
2022-11-01T02:52:08.978Z,10.00
2022-11-01T02:52:33.579Z,10.00
2022-11-01T02:52:56.305Z,10.00
2022-11-01T02:53:19.120Z,10.00
2022-11-01T02:53:41.851Z,10.00
2022-11-01T02:54:06.779Z,10.00
2022-11-01T02:54:32.396Z,10.00
2022-11-01T02:54:57.710Z,10.00
2022-11-01T02:55:31.075Z,10.00
2022-11-01T02:55:54.130Z,10.00
2022-11-01T02:56:16.824Z,10.00
2022-11-01T02:56:39.546Z,9.90
2022-11-01T02:57:05.600Z,10.00
2022-11-01T02:57:31.519Z,10.00
2022-11-01T02:57:54.244Z,10.00
2022-11-01T02:58:20.140Z,10.00
2022-11-01T02:58:42.811Z,10.00
2022-11-01T02:59:05.799Z,9.90
2022-11-01T02:59:28.797Z,9.90
2022-11-01T02:59:51.527Z,9.90
2022-11-01T03:00:19.684Z,9.90
2022-11-01T03:00:43.808Z,9.90
2022-11-01T03:01:15.517Z,9.90
2022-11-01T03:01:38.569Z,9.90
2022-11-01T03:02:04.759Z,10.00
2022-11-01T03:02:39.832Z,10.00
2022-11-01T03:03:10.469Z,10.00
2022-11-01T03:03:33.857Z,10.00
2022-11-01T03:03:56.944Z,10.00
2022-11-01T03:04:19.789Z,10.00
2022-11-01T03:04:42.734Z,10.00
2022-11-01T03:05:07.037Z,10.10
2022-11-01T03:05:35.153Z,10.00
2022-11-01T03:06:04.864Z,10.00
2022-11-01T03:06:30.401Z,10.00
2022-11-01T03:06:55.364Z,10.00
2022-11-01T03:07:18.213Z,10.00
2022-11-01T03:07:41.764Z,9.90
2022-11-01T03:08:06.727Z,10.00
2022-11-01T03:08:32.363Z,10.00
2022-11-01T03:08:57.779Z,10.00
2022-11-01T03:09:20.478Z,10.00
2022-11-01T03:09:43.257Z,10.00
2022-11-01T03:10:07.059Z,10.00
2022-11-01T03:10:35.603Z,10.00
2022-11-01T03:11:05.458Z,10.00
2022-11-01T03:11:32.529Z,10.00
2022-11-01T03:11:57.966Z,10.10
2022-11-01T03:12:21.933Z,10.00
2022-11-01T03:12:51.270Z,10.00
2022-11-01T03:13:21.444Z,10.00
2022-11-01T03:13:54.103Z,10.00
2022-11-01T03:14:23.759Z,10.00
2022-11-01T03:14:50.239Z,10.00
2022-11-01T03:15:21.268Z,10.00
2022-11-01T03:15:49.299Z,10.10
2022-11-01T03:16:16.958Z,10.10
2022-11-01T03:16:43.534Z,10.10
2022-11-01T03:17:08.498Z,10.10
2022-11-01T03:17:34.118Z,10.10
2022-11-01T03:18:01.296Z,10.00
2022-11-01T03:18:27.860Z,10.00
2022-11-01T03:19:04.843Z,10.00
2022-11-01T03:19:35.487Z,10.00
2022-11-01T03:20:06.827Z,10.00
2022-11-01T03:20:47.719Z,10.00
2022-11-01T03:21:18.275Z,10.00
2022-11-01T03:21:42.496Z,9.90
2022-11-01T03:22:09.308Z,9.90
2022-11-01T03:22:35.198Z,9.90
2022-11-01T03:22:59.098Z,9.90
2022-11-01T03:23:24.155Z,9.90
2022-11-01T03:23:49.772Z,9.80
2022-11-01T03:24:19.270Z,9.80
2022-11-01T03:24:46.575Z,9.70
2022-11-01T03:25:32.004Z,9.80
2022-11-01T03:25:55.902Z,9.70
2022-11-01T03:26:22.150Z,9.70
2022-11-01T03:26:45.640Z,9.70
2022-11-01T03:27:10.926Z,9.70
2022-11-01T03:27:35.525Z,9.60
2022-11-01T03:27:59.059Z,9.60
2022-11-01T03:28:23.083Z,9.60
2022-11-01T03:28:47.088Z,9.60
2022-11-01T03:29:10.089Z,9.60
2022-11-01T03:29:32.809Z,9.60
2022-11-01T03:30:03.694Z,9.60
2022-11-01T03:30:26.437Z,9.60
2022-11-01T03:30:51.146Z,9.60
2022-11-01T03:31:18.758Z,9.60
2022-11-01T03:31:41.558Z,9.60
2022-11-01T03:32:04.395Z,9.60
2022-11-01T03:32:30.729Z,9.60
2022-11-01T03:32:56.345Z,9.60
2022-11-01T03:33:19.059Z,9.60
2022-11-01T03:33:45.007Z,9.60
2022-11-01T03:34:16.419Z,9.60
2022-11-01T03:34:39.176Z,9.60
2022-11-01T03:35:01.909Z,9.60
2022-11-01T03:35:25.872Z,9.60
2022-11-01T03:35:49.811Z,9.60
2022-11-01T03:36:14.901Z,9.60
2022-11-01T03:36:39.204Z,9.60
2022-11-01T03:37:04.655Z,9.60
2022-11-01T03:37:28.490Z,9.60
2022-11-01T03:37:54.249Z,9.60
2022-11-01T03:38:17.769Z,9.60
2022-11-01T03:38:44.241Z,9.60
2022-11-01T03:39:09.015Z,9.60
2022-11-01T03:39:33.453Z,9.60
2022-11-01T03:39:56.144Z,9.60
2022-11-01T03:40:18.823Z,9.60
2022-11-01T03:40:44.793Z,9.60
2022-11-01T03:41:12.961Z,9.60
2022-11-01T03:41:38.334Z,9.60
2022-11-01T03:42:03.545Z,9.60
2022-11-01T03:42:26.235Z,9.70
2022-11-01T03:42:50.311Z,9.70
2022-11-01T03:43:13.994Z,9.60
2022-11-01T03:43:36.815Z,9.70
2022-11-01T03:43:59.673Z,9.70
2022-11-01T03:44:22.349Z,9.70
2022-11-01T03:44:47.094Z,9.70
2022-11-01T03:45:11.624Z,9.70
2022-11-01T03:45:35.573Z,9.70
2022-11-01T03:45:58.370Z,9.70
2022-11-01T03:46:21.055Z,9.70
2022-11-01T03:46:43.834Z,9.70
2022-11-01T03:47:06.684Z,9.80
2022-11-01T03:47:29.934Z,9.80
2022-11-01T03:47:54.041Z,9.80
2022-11-01T03:48:16.764Z,9.80
2022-11-01T03:48:40.278Z,9.80
2022-11-01T03:49:02.936Z,9.80
2022-11-01T03:49:25.613Z,9.80
2022-11-01T03:49:48.328Z,9.80
2022-11-01T03:50:15.034Z,9.80
2022-11-01T03:50:40.177Z,9.80
2022-11-01T03:51:02.892Z,9.80
2022-11-01T03:51:25.614Z,9.80
2022-11-01T03:51:48.716Z,9.80
2022-11-01T03:52:11.399Z,9.80
2022-11-01T03:52:34.255Z,9.80
2022-11-01T03:52:57.045Z,9.80
2022-11-01T03:53:19.865Z,9.80
2022-11-01T03:53:43.588Z,9.80
2022-11-01T03:54:11.004Z,9.80
2022-11-01T03:54:34.079Z,9.80
2022-11-01T03:54:56.878Z,9.80
2022-11-01T03:55:19.958Z,9.80
2022-11-01T03:55:43.839Z,9.80
2022-11-01T03:56:07.053Z,9.80
2022-11-01T03:56:29.733Z,9.80
2022-11-01T03:56:52.554Z,9.80
2022-11-01T03:57:16.030Z,9.80
2022-11-01T03:57:38.729Z,9.80
2022-11-01T03:58:01.828Z,9.80
2022-11-01T03:58:41.481Z,9.80
2022-11-01T03:59:04.333Z,9.80
2022-11-01T03:59:27.043Z,9.80
2022-11-01T03:59:49.743Z,9.80
2022-11-01T04:00:15.547Z,9.70
2022-11-01T04:00:39.129Z,9.70
2022-11-01T04:01:01.889Z,9.70
2022-11-01T04:01:24.748Z,9.70
2022-11-01T04:01:47.936Z,9.60
2022-11-01T04:02:38.676Z,9.70
2022-11-01T04:03:03.181Z,9.70
2022-11-01T04:03:26.274Z,9.70
2022-11-01T04:03:51.587Z,9.70
2022-11-01T04:04:14.298Z,9.70
2022-11-01T04:04:39.853Z,9.70
2022-11-01T04:05:02.569Z,9.80
2022-11-01T04:05:26.741Z,9.80
2022-11-01T04:05:49.512Z,9.80
2022-11-01T04:06:12.182Z,9.80
2022-11-01T04:06:35.086Z,9.80
2022-11-01T04:06:57.862Z,9.80
2022-11-01T04:07:20.642Z,9.80
2022-11-01T04:07:43.580Z,9.80
2022-11-01T04:08:06.884Z,9.80
2022-11-01T04:08:29.649Z,9.80
2022-11-01T04:08:52.414Z,9.80
2022-11-01T04:09:15.090Z,9.80
2022-11-01T04:09:37.772Z,9.80
2022-11-01T04:10:00.470Z,9.80
2022-11-01T04:10:24.005Z,9.80
2022-11-01T04:10:46.665Z,9.80
2022-11-01T04:11:09.336Z,9.80
2022-11-01T04:11:32.197Z,9.80
2022-11-01T04:11:54.883Z,9.80
2022-11-01T04:12:17.625Z,9.80
2022-11-01T04:12:44.793Z,9.80
2022-11-01T04:13:07.503Z,9.80
2022-11-01T04:13:30.183Z,9.80
2022-11-01T04:13:52.853Z,9.80
2022-11-01T04:14:34.087Z,9.80
2022-11-01T04:15:15.576Z,9.80
2022-11-01T04:15:56.891Z,9.90
2022-11-01T04:16:38.531Z,9.80
2022-11-01T04:17:20.151Z,9.90
2022-11-01T04:18:01.121Z,9.90
2022-11-01T04:18:44.271Z,9.90
2022-11-01T04:19:26.271Z,9.90
2022-11-01T04:20:07.775Z,9.80
2022-11-01T04:20:33.541Z,9.80
2022-11-01T04:20:56.261Z,9.80
2022-11-01T04:21:20.803Z,9.80
2022-11-01T04:21:43.509Z,9.80
2022-11-01T04:22:06.241Z,9.80
2022-11-01T04:22:29.014Z,9.80
2022-11-01T04:22:51.731Z,9.80
2022-11-01T04:23:14.354Z,9.80
2022-11-01T04:23:37.195Z,9.80
2022-11-01T04:23:59.970Z,9.90
2022-11-01T04:24:22.619Z,9.80
2022-11-01T04:24:45.453Z,9.80
2022-11-01T04:25:08.557Z,9.80
2022-11-01T04:25:31.436Z,9.80
2022-11-01T04:25:54.115Z,9.80
2022-11-01T04:26:19.326Z,9.80
2022-11-01T04:26:41.997Z,9.80
2022-11-01T04:27:04.791Z,9.80
2022-11-01T04:27:27.532Z,9.80
2022-11-01T04:27:50.238Z,9.80
2022-11-01T04:28:12.951Z,9.80
2022-11-01T04:28:35.918Z,9.80
2022-11-01T04:28:58.888Z,9.70
2022-11-01T04:29:21.574Z,9.70
2022-11-01T04:29:47.200Z,9.70
2022-11-01T04:30:11.184Z,9.70
2022-11-01T04:30:33.898Z,9.70
2022-11-01T04:30:56.621Z,9.70
2022-11-01T04:31:19.313Z,9.70
2022-11-01T04:31:42.227Z,9.70
2022-11-01T04:32:05.209Z,9.70
2022-11-01T04:32:27.988Z,9.70
2022-11-01T04:32:50.739Z,9.70
2022-11-01T04:33:13.758Z,9.80
2022-11-01T04:33:38.462Z,9.70
2022-11-01T04:34:01.603Z,9.80
2022-11-01T04:34:42.784Z,9.70
2022-11-01T04:35:35.839Z,9.70
2022-11-01T04:35:58.543Z,9.70
2022-11-01T04:36:21.325Z,9.70
2022-11-01T04:36:44.298Z,9.70
2022-11-01T04:37:07.006Z,9.70
2022-11-01T04:37:31.676Z,9.60
2022-11-01T04:37:57.952Z,9.60
2022-11-01T04:38:20.682Z,9.60
2022-11-01T04:38:43.365Z,9.60
2022-11-01T04:39:06.084Z,9.60
2022-11-01T04:39:28.816Z,9.60
2022-11-01T04:39:51.558Z,9.60
2022-11-01T04:40:15.716Z,9.60
2022-11-01T04:40:38.341Z,9.60
2022-11-01T04:41:00.984Z,9.70
2022-11-01T04:41:23.836Z,9.70
2022-11-01T04:41:47.100Z,9.70
2022-11-01T04:42:11.145Z,9.70
2022-11-01T04:42:34.792Z,9.70
2022-11-01T04:42:58.202Z,9.70
2022-11-01T04:43:22.895Z,9.70
2022-11-01T04:43:45.821Z,9.80
2022-11-01T04:44:08.567Z,9.80
2022-11-01T04:44:31.258Z,9.80
2022-11-01T04:44:53.913Z,9.80
2022-11-01T04:45:16.705Z,9.80
2022-11-01T04:45:39.422Z,9.80
2022-11-01T04:46:02.135Z,9.80
2022-11-01T04:46:24.845Z,9.80
2022-11-01T04:46:47.766Z,9.70
2022-11-01T04:47:10.507Z,9.70
2022-11-01T04:47:33.280Z,9.70
2022-11-01T04:48:03.376Z,9.70
2022-11-01T04:48:27.701Z,9.70
2022-11-01T04:48:51.851Z,9.70
2022-11-01T04:49:14.566Z,9.70
2022-11-01T04:49:37.182Z,9.70
2022-11-01T04:49:59.947Z,9.80
2022-11-01T04:50:22.657Z,9.70
2022-11-01T04:50:46.117Z,9.70
2022-11-01T04:51:08.958Z,9.70
2022-11-01T04:51:31.706Z,9.70
2022-11-01T04:51:54.547Z,9.70
2022-11-01T04:52:17.411Z,9.70
2022-11-01T04:52:40.287Z,9.70
2022-11-01T04:53:03.258Z,9.70
2022-11-01T04:53:26.225Z,9.80
2022-11-01T04:53:49.190Z,9.80
2022-11-01T04:54:12.038Z,9.70
2022-11-01T04:54:34.708Z,9.70
2022-11-01T04:54:57.480Z,9.80
2022-11-01T04:55:20.214Z,9.80
2022-11-01T04:55:42.875Z,9.80
2022-11-01T04:56:07.259Z,9.80
2022-11-01T04:56:29.979Z,9.80
2022-11-01T04:56:52.650Z,9.80
2022-11-01T04:57:24.509Z,9.80
2022-11-01T04:57:47.366Z,9.80
2022-11-01T04:58:11.114Z,9.80
2022-11-01T04:58:34.628Z,9.80
2022-11-01T04:58:57.675Z,9.80
2022-11-01T04:59:20.402Z,9.80
2022-11-01T04:59:43.159Z,9.70
2022-11-01T05:00:08.321Z,9.70
2022-11-01T05:00:33.415Z,9.70
2022-11-01T05:00:56.776Z,9.70
2022-11-01T05:01:22.218Z,9.70
2022-11-01T05:01:45.562Z,9.80
2022-11-01T05:02:08.369Z,9.80
2022-11-01T05:02:31.193Z,9.80
2022-11-01T05:02:54.920Z,9.70
2022-11-01T05:03:17.673Z,9.70
2022-11-01T05:03:40.341Z,9.70
2022-11-01T05:04:05.042Z,9.70
2022-11-01T05:04:27.725Z,9.70
2022-11-01T05:04:50.468Z,9.70
2022-11-01T05:05:13.407Z,9.70
2022-11-01T05:05:36.821Z,9.70
2022-11-01T05:05:59.570Z,9.70
2022-11-01T05:06:22.242Z,9.70
2022-11-01T05:06:44.945Z,9.70
2022-11-01T05:07:07.810Z,9.70
2022-11-01T05:07:30.550Z,9.70
2022-11-01T05:08:27.725Z,9.60
2022-11-01T05:08:50.593Z,9.70
2022-11-01T05:09:13.270Z,9.60
2022-11-01T05:09:35.979Z,9.70
2022-11-01T05:09:58.638Z,9.70
2022-11-01T05:10:21.284Z,9.70
2022-11-01T05:10:44.480Z,9.70
2022-11-01T05:11:07.299Z,9.80
2022-11-01T05:11:30.125Z,9.80
2022-11-01T05:11:52.801Z,9.80
2022-11-01T05:12:15.550Z,9.80
2022-11-01T05:12:38.300Z,9.80
2022-11-01T05:13:01.386Z,9.80
2022-11-01T05:13:25.194Z,9.70
2022-11-01T05:13:47.913Z,9.70
2022-11-01T05:14:10.719Z,9.70
2022-11-01T05:14:33.419Z,9.70
2022-11-01T05:14:56.995Z,9.70
2022-11-01T05:15:20.107Z,9.70
2022-11-01T05:15:59.262Z,9.70
2022-11-01T05:16:25.511Z,9.70
2022-11-01T05:16:48.179Z,9.70
2022-11-01T05:17:13.749Z,9.70
2022-11-01T05:17:36.569Z,9.70
2022-11-01T05:17:59.509Z,9.60
2022-11-01T05:18:22.234Z,9.70
2022-11-01T05:18:45.083Z,9.70
2022-11-01T05:19:09.400Z,9.70
2022-11-01T05:19:32.169Z,9.70
2022-11-01T05:19:54.815Z,9.60
2022-11-01T05:20:17.593Z,9.60
2022-11-01T05:20:40.278Z,9.60
2022-11-01T05:21:02.912Z,9.60
2022-11-01T05:21:25.624Z,9.60
2022-11-01T05:21:48.367Z,9.60
2022-11-01T05:22:11.080Z,9.60
2022-11-01T05:22:33.796Z,9.60
2022-11-01T05:22:59.681Z,9.50
2022-11-01T05:23:23.738Z,9.60
2022-11-01T05:23:47.862Z,9.60
2022-11-01T05:24:10.631Z,9.60
2022-11-01T05:24:33.399Z,9.60
2022-11-01T05:24:56.177Z,9.60
2022-11-01T05:25:18.889Z,9.60
2022-11-01T05:25:41.662Z,9.60